Detall de PIREP

Printer-friendly versionPDF version

[2012/02/21 16:59:00]
Flight IATA:CT2302
Pilot Number:042
Company ICAO:CAT
Aircraft Type:B738/F
PAX:100
Departing Airport: LIEA
Destination Airport: LIBR
Alternate Airport:LIBD
Online: VATSIM
Route:KOLUS UM603 SOR UM742 LUXIL L995 ROBOT
Flight Level:F310
No Slew and time accel
No pause
Crash detect
Detect pilot in Cockpit between each 30 and 45 minutes
16:59 Zero fuel Weight: 91300 Lbs, Fuel Weight: 46053 Lbs
16:59 VATSIM:LIEA 211620Z 04012KT 9999 FEW030 13/07 Q1021
16:59 VATSIM:LIBR 211615Z 14011KT 9999 SCT020 SCT040 11/08 Q1023 NOSIG
16:59 VOICE CATALONIAN
17:04 Parking Brakes off
17:08 Take-off
17:08 Take off Weight: 136808 Lbs
17:08 Wind: 040º @ 012 Knots Heading: 025º
17:08 POS N40º 38´ 00´´ E008º 17´ 30´´
17:08 Gear Up: 167 Knots
17:08 Flaps:5 at 167 Knots
17:08 Flaps:4 at 181 Knots
17:08 Flaps:3 at 197 Knots
17:08 Flaps:2 at 210 Knots
17:08 Flaps:1 at 222 Knots
17:09 Flaps:0 at 234 Knots
17:22 TOC
17:22 Fuel Weight: 42415 Lb
17:23 Wind:172º@021 Knots Heading: 087º Ground Speed: 449 Knots Altitude 31286 ft
17:38 Wind:202º@028 Knots Heading: 089º Ground Speed: 463 Knots Altitude 31230 ft
17:53 Wind:201º@044 Knots Heading: 089º Ground Speed: 470 Knots Altitude 31240 ft
18:00 UTC Jump: added 1 Hour to Log
18:00 UTC Jump: removed 1 Hour from Log
18:02 TOD
18:02 Fuel Weight: 38319 Lb
18:08 Wind:186º@028 Knots Heading: 106º Ground Speed: 351 Knots Altitude 19320 ft
18:20 Flaps:1 at 185 Knots
18:20 Flaps:2 at 183 Knots
18:21 Flaps:3 at 172 Knots
18:23 Wind:158º@004 Knots Heading: 331º Ground Speed: 165 Knots Altitude 2283 ft
18:23 Gear Down: 164 Knots
18:23 Flaps:4 at 164 Knots
18:23 Flaps:5 at 158 Knots
18:23 Flaps:6 at 152 Knots
18:24 Flaps:7 at 136 Knots
18:24 Flaps:8 at 136 Knots
18:26 TouchDown:Rate -159 ft/min Speed: 122 Knots
18:27 VATSIM:LIBR 211745Z 16004KT 9999 FEW020 SCT040 10/07 Q1024 NOSIG
18:27 Land
18:27 Wind:158º@004 Knots
18:27 Heading: 315º
18:27 Flight Duration: 01:19
18:27 Landing Weight: 128430 Lbs
18:27 POS N40º 40´ 00´´ E017º 56´ 10´´
18:30 Parking brakes on
18:30 Block to Block Duration: 01:26
18:30 Final Fuel: 36849 Lbls
18:30 Spent Fuel: 9204 Lbls
18:30 Flight Length: 503 NM
18:30 TOD Land Length: 110 NM

Exportar CSV

Powered by Drupal - Modified by Danger4k